ETH814A HTZA-HTKJ
Flight info
| Callsign | ETH814A |
|---|---|
| Flight time | 0h 42m |
| Altitude | 30000 |
| Route | OKBEM DCT MUMTU ERBEP2A |
| Aircraft | B38M/M-SDE1FGHILORVWXY/HB1 |
Departure
| Time | 2026-05-06 14:30 |
|---|---|
| Airport | Abeid Amani Karume International Airport (HTZA) |
Arrival
| Time | 2026-05-06 15:12 |
|---|---|
| Airport | Kilimanjaro International Airport (HTKJ) |
| Time | Latitude | Longitude | Altitude | Speed | Heading |
|---|---|---|---|---|---|
| 2026-05-06 14:18 | -6.22191 | 39.22243 | 62 ft | 0 kts | 264° |
| 2026-05-06 14:22 | -6.22191 | 39.22250 | 56 ft | 4 kts | 265° |
| 2026-05-06 14:22 | -6.22190 | 39.22277 | 54 ft | 4 kts | 274° |
| 2026-05-06 14:22 | -6.22195 | 39.22303 | 53 ft | 4 kts | 294° |
| 2026-05-06 14:23 | -6.22210 | 39.22320 | 59 ft | 4 kts | 347° |
| 2026-05-06 14:23 | -6.22214 | 39.22321 | 58 ft | 2 kts | 354° |
| 2026-05-06 14:26 | -6.22213 | 39.22321 | 59 ft | 1 kts | 354° |
| 2026-05-06 14:26 | -6.22187 | 39.22319 | 61 ft | 8 kts | 354° |
| 2026-05-06 14:27 | -6.22090 | 39.22308 | 62 ft | 18 kts | 354° |
| 2026-05-06 14:27 | -6.21984 | 39.22327 | 60 ft | 14 kts | 81° |
| 2026-05-06 14:27 | -6.21974 | 39.22398 | 59 ft | 10 kts | 82° |
| 2026-05-06 14:27 | -6.21973 | 39.22403 | 60 ft | 0 kts | 82° |
| 2026-05-06 14:28 | -6.21973 | 39.22406 | 62 ft | 2 kts | 81° |
| 2026-05-06 14:28 | -6.21970 | 39.22427 | 62 ft | 5 kts | 81° |
| 2026-05-06 14:29 | -6.21969 | 39.22464 | 62 ft | 4 kts | 124° |
| 2026-05-06 14:29 | -6.21979 | 39.22469 | 55 ft | 0 kts | 169° |
| 2026-05-06 14:29 | -6.21989 | 39.22471 | 58 ft | 18 kts | 169° |
| 2026-05-06 14:29 | -6.22449 | 39.22518 | 57 ft | 112 kts | 174° |
| 2026-05-06 14:30 | -6.23463 | 39.22619 | 256 ft | 168 kts | 174° |
| 2026-05-06 14:30 | -6.24741 | 39.22741 | 975 ft | 199 kts | 175° |
| 2026-05-06 14:30 | -6.26127 | 39.22844 | 1625 ft | 198 kts | 174° |
| 2026-05-06 14:30 | -6.27482 | 39.22903 | 1991 ft | 193 kts | 186° |
| 2026-05-06 14:31 | -6.28670 | 39.22221 | 2406 ft | 210 kts | 231° |
| 2026-05-06 14:31 | -6.29139 | 39.20801 | 3028 ft | 225 kts | 264° |
| 2026-05-06 14:31 | -6.29199 | 39.19155 | 3716 ft | 246 kts | 265° |
| 2026-05-06 14:31 | -6.29099 | 39.17387 | 4350 ft | 262 kts | 286° |
| 2026-05-06 14:32 | -6.28100 | 39.15865 | 4980 ft | 267 kts | 322° |
| 2026-05-06 14:32 | -6.26406 | 39.15133 | 5642 ft | 269 kts | 351° |
| 2026-05-06 14:32 | -6.24520 | 39.14892 | 6322 ft | 277 kts | 354° |
| 2026-05-06 14:32 | -6.22588 | 39.14682 | 6832 ft | 281 kts | 355° |
| 2026-05-06 14:33 | -6.20638 | 39.14481 | 7318 ft | 283 kts | 355° |
| 2026-05-06 14:33 | -6.18674 | 39.14291 | 7804 ft | 284 kts | 354° |
| 2026-05-06 14:33 | -6.16698 | 39.14097 | 8314 ft | 286 kts | 355° |
| 2026-05-06 14:33 | -6.14714 | 39.13900 | 8813 ft | 287 kts | 353° |
| 2026-05-06 14:34 | -6.12861 | 39.13251 | 9396 ft | 284 kts | 323° |
| 2026-05-06 14:34 | -6.11404 | 39.11868 | 10132 ft | 295 kts | 314° |
| 2026-05-06 14:34 | -6.09873 | 39.10396 | 10706 ft | 314 kts | 316° |
| 2026-05-06 14:34 | -6.08259 | 39.08837 | 11331 ft | 329 kts | 315° |
| 2026-05-06 14:35 | -6.06595 | 39.07212 | 12106 ft | 336 kts | 315° |
| 2026-05-06 14:35 | -6.04923 | 39.05566 | 13044 ft | 339 kts | 315° |
| 2026-05-06 14:35 | -6.03229 | 39.03891 | 13887 ft | 343 kts | 315° |
| 2026-05-06 14:35 | -6.01545 | 39.02223 | 14634 ft | 347 kts | 315° |
| 2026-05-06 14:36 | -5.99820 | 39.00515 | 15370 ft | 351 kts | 315° |
| 2026-05-06 14:36 | -5.98073 | 38.98783 | 16094 ft | 355 kts | 316° |
| 2026-05-06 14:36 | -5.96306 | 38.97030 | 16811 ft | 359 kts | 316° |
| 2026-05-06 14:36 | -5.94520 | 38.95259 | 17506 ft | 363 kts | 316° |
| 2026-05-06 14:37 | -5.92714 | 38.93469 | 18187 ft | 367 kts | 316° |
| 2026-05-06 14:37 | -5.90892 | 38.91663 | 18759 ft | 371 kts | 316° |
| 2026-05-06 14:37 | -5.89049 | 38.89829 | 19289 ft | 375 kts | 316° |
| 2026-05-06 14:37 | -5.87182 | 38.87982 | 19840 ft | 379 kts | 316° |
| 2026-05-06 14:38 | -5.85300 | 38.86116 | 20383 ft | 382 kts | 316° |
| 2026-05-06 14:38 | -5.83391 | 38.84226 | 20897 ft | 387 kts | 316° |
| 2026-05-06 14:38 | -5.81465 | 38.82319 | 21449 ft | 391 kts | 316° |
| 2026-05-06 14:38 | -5.79522 | 38.80394 | 21963 ft | 395 kts | 316° |
| 2026-05-06 14:39 | -5.77558 | 38.78450 | 22490 ft | 398 kts | 316° |
| 2026-05-06 14:39 | -5.75576 | 38.76486 | 22982 ft | 402 kts | 317° |
| 2026-05-06 14:39 | -5.73574 | 38.74503 | 23502 ft | 406 kts | 317° |
| 2026-05-06 14:39 | -5.71557 | 38.72506 | 23920 ft | 409 kts | 316° |
| 2026-05-06 14:40 | -5.69525 | 38.70494 | 24356 ft | 411 kts | 316° |
| 2026-05-06 14:40 | -5.67483 | 38.68472 | 24798 ft | 413 kts | 317° |
| 2026-05-06 14:40 | -5.65435 | 38.66445 | 25221 ft | 416 kts | 317° |
| 2026-05-06 14:40 | -5.63365 | 38.64396 | 25650 ft | 419 kts | 317° |
| 2026-05-06 14:41 | -5.61276 | 38.62328 | 25900 ft | 424 kts | 317° |
| 2026-05-06 14:41 | -5.59273 | 38.60166 | 26386 ft | 424 kts | 314° |
| 2026-05-06 14:41 | -5.57279 | 38.57970 | 26825 ft | 426 kts | 314° |
| 2026-05-06 14:41 | -5.55270 | 38.55773 | 27228 ft | 429 kts | 314° |
| 2026-05-06 14:42 | -5.53252 | 38.53572 | 27661 ft | 431 kts | 314° |
| 2026-05-06 14:42 | -5.51207 | 38.51342 | 27920 ft | 436 kts | 314° |
| 2026-05-06 14:42 | -5.49131 | 38.49081 | 27962 ft | 444 kts | 314° |
| 2026-05-06 14:42 | -5.47043 | 38.46804 | 27953 ft | 443 kts | 314° |
| 2026-05-06 14:43 | -5.44953 | 38.44527 | 27961 ft | 443 kts | 314° |
| 2026-05-06 14:43 | -5.42898 | 38.42289 | 27960 ft | 443 kts | 314° |
| 2026-05-06 14:43 | -5.40777 | 38.39979 | 27963 ft | 443 kts | 314° |
| 2026-05-06 14:43 | -5.38716 | 38.37733 | 27963 ft | 443 kts | 314° |
| 2026-05-06 14:44 | -5.36631 | 38.35463 | 27965 ft | 443 kts | 314° |
| 2026-05-06 14:44 | -5.34544 | 38.33191 | 27967 ft | 443 kts | 314° |
| 2026-05-06 14:44 | -5.32451 | 38.30912 | 27968 ft | 443 kts | 314° |
| 2026-05-06 14:45 | -5.28276 | 38.26366 | 27971 ft | 443 kts | 314° |
| 2026-05-06 14:45 | -5.26186 | 38.24091 | 27973 ft | 443 kts | 314° |
| 2026-05-06 14:45 | -5.24779 | 38.22560 | 27974 ft | 443 kts | 314° |
| 2026-05-06 14:45 | -5.22010 | 38.19547 | 27981 ft | 443 kts | 314° |
| 2026-05-06 14:46 | -5.20626 | 38.18043 | 27976 ft | 443 kts | 315° |
| 2026-05-06 14:46 | -5.18375 | 38.15940 | 27981 ft | 442 kts | 320° |
| 2026-05-06 14:46 | -5.16088 | 38.13877 | 27985 ft | 442 kts | 319° |
| 2026-05-06 14:46 | -5.13813 | 38.11811 | 27972 ft | 442 kts | 319° |
| 2026-05-06 14:47 | -5.11542 | 38.09732 | 27976 ft | 442 kts | 319° |
| 2026-05-06 14:47 | -5.09280 | 38.07636 | 27979 ft | 442 kts | 319° |
| 2026-05-06 14:47 | -5.07018 | 38.05546 | 27984 ft | 442 kts | 319° |
| 2026-05-06 14:47 | -5.04755 | 38.03458 | 27983 ft | 442 kts | 319° |
| 2026-05-06 14:48 | -5.02490 | 38.01370 | 27985 ft | 442 kts | 319° |
| 2026-05-06 14:48 | -5.00221 | 37.99291 | 27980 ft | 442 kts | 319° |
| 2026-05-06 14:48 | -4.97955 | 37.97206 | 27980 ft | 442 kts | 318° |
| 2026-05-06 14:48 | -4.95702 | 37.95119 | 27989 ft | 442 kts | 319° |
| 2026-05-06 14:49 | -4.93437 | 37.93027 | 27994 ft | 442 kts | 319° |
| 2026-05-06 14:49 | -4.91176 | 37.90937 | 27983 ft | 442 kts | 319° |
| 2026-05-06 14:49 | -4.88908 | 37.88857 | 27977 ft | 442 kts | 319° |
| 2026-05-06 14:49 | -4.86641 | 37.86765 | 27987 ft | 442 kts | 319° |
| 2026-05-06 14:50 | -4.84384 | 37.84682 | 27972 ft | 442 kts | 319° |
| 2026-05-06 14:50 | -4.82118 | 37.82595 | 27986 ft | 442 kts | 319° |
| 2026-05-06 14:50 | -4.79856 | 37.80510 | 27989 ft | 442 kts | 319° |
| 2026-05-06 14:50 | -4.77590 | 37.78431 | 27977 ft | 442 kts | 319° |
| 2026-05-06 14:51 | -4.75318 | 37.76352 | 28007 ft | 442 kts | 319° |
| 2026-05-06 14:51 | -4.73061 | 37.74265 | 27976 ft | 441 kts | 319° |
| 2026-05-06 14:51 | -4.70802 | 37.72175 | 27990 ft | 442 kts | 318° |
| 2026-05-06 14:51 | -4.68548 | 37.70090 | 27988 ft | 441 kts | 319° |
| 2026-05-06 14:52 | -4.66289 | 37.68003 | 27988 ft | 441 kts | 320° |
| 2026-05-06 14:52 | -4.64056 | 37.65973 | 27966 ft | 426 kts | 319° |
| 2026-05-06 14:52 | -4.61898 | 37.63981 | 27703 ft | 418 kts | 319° |
| 2026-05-06 14:52 | -4.59768 | 37.62022 | 27266 ft | 414 kts | 319° |
| 2026-05-06 14:53 | -4.57653 | 37.60074 | 26807 ft | 412 kts | 319° |
| 2026-05-06 14:53 | -4.55547 | 37.58133 | 26343 ft | 411 kts | 319° |
| 2026-05-06 14:53 | -4.53446 | 37.56199 | 25896 ft | 409 kts | 319° |
| 2026-05-06 14:53 | -4.51352 | 37.54280 | 25457 ft | 407 kts | 319° |
| 2026-05-06 14:54 | -4.49275 | 37.52365 | 25007 ft | 405 kts | 319° |
| 2026-05-06 14:54 | -4.47198 | 37.50453 | 24557 ft | 404 kts | 320° |
| 2026-05-06 14:54 | -4.45129 | 37.48549 | 24122 ft | 404 kts | 319° |
| 2026-05-06 14:54 | -4.43066 | 37.46655 | 23703 ft | 402 kts | 319° |
| 2026-05-06 14:55 | -4.41005 | 37.44760 | 23213 ft | 401 kts | 319° |
| 2026-05-06 14:55 | -4.38955 | 37.42867 | 22756 ft | 399 kts | 319° |
| 2026-05-06 14:55 | -4.36792 | 37.41165 | 22245 ft | 394 kts | 333° |
| 2026-05-06 14:55 | -4.34341 | 37.39985 | 21873 ft | 389 kts | 333° |
| 2026-05-06 14:56 | -4.32036 | 37.38576 | 21494 ft | 385 kts | 332° |
| 2026-05-06 14:56 | -4.29707 | 37.37270 | 21101 ft | 382 kts | 332° |
| 2026-05-06 14:56 | -4.27427 | 37.36000 | 20718 ft | 379 kts | 333° |
| 2026-05-06 14:56 | -4.25134 | 37.34727 | 20322 ft | 376 kts | 333° |
| 2026-05-06 14:57 | -4.22822 | 37.33463 | 19954 ft | 372 kts | 333° |
| 2026-05-06 14:57 | -4.20560 | 37.32219 | 19585 ft | 369 kts | 333° |
| 2026-05-06 14:57 | -4.18317 | 37.30989 | 19227 ft | 366 kts | 333° |
| 2026-05-06 14:57 | -4.16119 | 37.29785 | 18866 ft | 363 kts | 333° |
| 2026-05-06 14:58 | -4.13912 | 37.28571 | 18497 ft | 361 kts | 332° |
| 2026-05-06 14:58 | -4.11719 | 37.27366 | 18095 ft | 358 kts | 332° |
| 2026-05-06 14:58 | -4.09550 | 37.26183 | 17708 ft | 348 kts | 332° |
| 2026-05-06 14:58 | -4.07464 | 37.25037 | 17368 ft | 334 kts | 332° |
| 2026-05-06 14:59 | -4.05459 | 37.23936 | 16945 ft | 328 kts | 332° |
| 2026-05-06 14:59 | -4.03455 | 37.22836 | 16557 ft | 328 kts | 332° |
| 2026-05-06 14:59 | -4.01463 | 37.21744 | 16211 ft | 325 kts | 332° |
| 2026-05-06 14:59 | -3.99489 | 37.20663 | 15883 ft | 322 kts | 332° |
| 2026-05-06 15:00 | -3.97528 | 37.19590 | 15546 ft | 319 kts | 331° |
| 2026-05-06 15:00 | -3.95591 | 37.18527 | 15236 ft | 317 kts | 332° |
| 2026-05-06 15:00 | -3.93665 | 37.17472 | 14918 ft | 314 kts | 331° |
| 2026-05-06 15:00 | -3.91756 | 37.16426 | 14593 ft | 312 kts | 332° |
| 2026-05-06 15:01 | -3.89859 | 37.15396 | 14288 ft | 309 kts | 331° |
| 2026-05-06 15:01 | -3.87980 | 37.14361 | 13964 ft | 307 kts | 331° |
| 2026-05-06 15:01 | -3.86108 | 37.13343 | 13636 ft | 305 kts | 330° |
| 2026-05-06 15:01 | -3.84258 | 37.12323 | 13289 ft | 303 kts | 331° |
| 2026-05-06 15:02 | -3.82419 | 37.11310 | 12970 ft | 300 kts | 331° |
| 2026-05-06 15:02 | -3.80598 | 37.10315 | 12676 ft | 296 kts | 331° |
| 2026-05-06 15:02 | -3.78798 | 37.09327 | 12381 ft | 295 kts | 331° |
| 2026-05-06 15:02 | -3.76976 | 37.08329 | 12073 ft | 301 kts | 331° |
| 2026-05-06 15:03 | -3.75126 | 37.07313 | 11737 ft | 305 kts | 332° |
| 2026-05-06 15:03 | -3.73330 | 37.06196 | 11436 ft | 305 kts | 317° |
| 2026-05-06 15:03 | -3.71941 | 37.04627 | 11127 ft | 303 kts | 310° |
| 2026-05-06 15:03 | -3.70580 | 37.03026 | 10826 ft | 301 kts | 310° |
| 2026-05-06 15:04 | -3.69232 | 37.01435 | 10525 ft | 299 kts | 310° |
| 2026-05-06 15:04 | -3.67895 | 36.99853 | 10293 ft | 294 kts | 309° |
| 2026-05-06 15:04 | -3.66593 | 36.98310 | 10154 ft | 286 kts | 309° |
| 2026-05-06 15:04 | -3.65324 | 36.96806 | 10005 ft | 279 kts | 309° |
| 2026-05-06 15:05 | -3.64077 | 36.95327 | 9717 ft | 277 kts | 309° |
| 2026-05-06 15:05 | -3.62839 | 36.93860 | 9466 ft | 274 kts | 309° |
| 2026-05-06 15:05 | -3.61632 | 36.92428 | 9339 ft | 265 kts | 310° |
| 2026-05-06 15:05 | -3.60457 | 36.91035 | 9211 ft | 257 kts | 310° |
| 2026-05-06 15:06 | -3.59323 | 36.89690 | 9105 ft | 249 kts | 310° |
| 2026-05-06 15:06 | -3.58166 | 36.88397 | 8953 ft | 250 kts | 320° |
| 2026-05-06 15:06 | -3.56625 | 36.87634 | 8602 ft | 250 kts | 351° |
| 2026-05-06 15:06 | -3.54901 | 36.87653 | 8273 ft | 248 kts | 10° |
| 2026-05-06 15:07 | -3.53184 | 36.87852 | 7957 ft | 249 kts | 7° |
| 2026-05-06 15:07 | -3.51457 | 36.88052 | 7580 ft | 252 kts | 8° |
| 2026-05-06 15:07 | -3.49704 | 36.88258 | 7227 ft | 255 kts | 8° |
| 2026-05-06 15:07 | -3.47941 | 36.88476 | 6889 ft | 256 kts | 9° |
| 2026-05-06 15:08 | -3.46206 | 36.88805 | 6525 ft | 251 kts | 24° |
| 2026-05-06 15:08 | -3.44808 | 36.89763 | 6116 ft | 242 kts | 52° |
| 2026-05-06 15:08 | -3.43993 | 36.91196 | 5775 ft | 234 kts | 70° |
| 2026-05-06 15:08 | -3.43604 | 36.92701 | 5618 ft | 212 kts | 83° |
| 2026-05-06 15:09 | -3.43500 | 36.94096 | 5336 ft | 190 kts | 89° |
| 2026-05-06 15:09 | -3.43460 | 36.95344 | 5068 ft | 169 kts | 88° |
| 2026-05-06 15:09 | -3.43419 | 36.96469 | 4849 ft | 159 kts | 90° |
| 2026-05-06 15:09 | -3.43374 | 36.97579 | 4621 ft | 163 kts | 89° |
| 2026-05-06 15:10 | -3.43338 | 36.98714 | 4550 ft | 164 kts | 92° |
| 2026-05-06 15:10 | -3.43327 | 36.99855 | 4293 ft | 164 kts | 89° |
| 2026-05-06 15:10 | -3.43269 | 37.00998 | 4073 ft | 166 kts | 85° |
| 2026-05-06 15:10 | -3.43191 | 37.02155 | 3733 ft | 165 kts | 86° |
| 2026-05-06 15:11 | -3.43141 | 37.03287 | 3462 ft | 161 kts | 84° |
| 2026-05-06 15:11 | -3.43075 | 37.04385 | 3245 ft | 159 kts | 88° |
| 2026-05-06 15:11 | -3.43032 | 37.05494 | 3061 ft | 159 kts | 86° |
| 2026-05-06 15:11 | -3.42983 | 37.06563 | 2932 ft | 142 kts | 87° |
| 2026-05-06 15:12 | -3.42952 | 37.07292 | 2937 ft | 70 kts | 88° |
| 2026-05-06 15:12 | -3.42937 | 37.07589 | 2937 ft | 28 kts | 86° |
| 2026-05-06 15:12 | -3.42930 | 37.07794 | 2938 ft | 30 kts | 89° |
| 2026-05-06 15:12 | -3.42924 | 37.08000 | 2940 ft | 29 kts | 88° |
| 2026-05-06 15:13 | -3.42865 | 37.08154 | 2933 ft | 18 kts | 81° |
| 2026-05-06 15:13 | -3.42908 | 37.08187 | 2940 ft | 4 kts | 218° |
| 2026-05-06 15:13 | -3.42912 | 37.08163 | 2937 ft | 10 kts | 266° |
| 2026-05-06 15:13 | -3.42918 | 37.08054 | 2940 ft | 21 kts | 268° |
| 2026-05-06 15:14 | -3.42923 | 37.07896 | 2932 ft | 24 kts | 268° |
| 2026-05-06 15:14 | -3.42931 | 37.07719 | 2933 ft | 27 kts | 268° |
| 2026-05-06 15:14 | -3.42939 | 37.07542 | 2933 ft | 24 kts | 267° |
| 2026-05-06 15:14 | -3.42947 | 37.07375 | 2937 ft | 24 kts | 268° |
| 2026-05-06 15:15 | -3.42934 | 37.07204 | 2937 ft | 25 kts | 282° |
| 2026-05-06 15:15 | -3.42873 | 37.07049 | 2934 ft | 24 kts | 301° |
| 2026-05-06 15:15 | -3.42776 | 37.06915 | 2939 ft | 24 kts | 312° |
| 2026-05-06 15:15 | -3.42715 | 37.06775 | 2939 ft | 21 kts | 266° |
| 2026-05-06 15:16 | -3.42723 | 37.06647 | 2931 ft | 16 kts | 267° |
| 2026-05-06 15:16 | -3.42659 | 37.06594 | 2939 ft | 11 kts | 356° |
| 2026-05-06 15:16 | -3.42622 | 37.06595 | 2939 ft | 0 kts | 45° |
| 2026-05-06 15:16 | -3.42622 | 37.06597 | 2939 ft | 0 kts | 64° |
| 2026-05-06 15:17 | -3.42626 | 37.06600 | 2939 ft | 1 kts | 144° |
| 2026-05-06 15:17 | -3.42651 | 37.06623 | 2935 ft | 6 kts | 98° |
| 2026-05-06 15:17 | -3.42650 | 37.06655 | 2936 ft | 3 kts | 85° |
| 2026-05-06 15:17 | -3.42650 | 37.06658 | 2937 ft | 0 kts | 85° |